sensor_id;sensor_type;location;lat;lon;timestamp;temperature;humidity
298;DHT22;133;49.626;9.680;2023-03-03T00:00:40;3.30;76.50
298;DHT22;133;49.626;9.680;2023-03-03T00:03:07;3.30;76.40
298;DHT22;133;49.626;9.680;2023-03-03T00:05:34;3.30;76.40
298;DHT22;133;49.626;9.680;2023-03-03T00:08:01;3.30;75.90
298;DHT22;133;49.626;9.680;2023-03-03T00:10:27;3.10;77.60
298;DHT22;133;49.626;9.680;2023-03-03T00:12:53;3.20;76.90
298;DHT22;133;49.626;9.680;2023-03-03T00:15:22;3.00;76.90
298;DHT22;133;49.626;9.680;2023-03-03T00:17:48;2.90;76.70
298;DHT22;133;49.626;9.680;2023-03-03T00:25:58;3.00;77.50
298;DHT22;133;49.626;9.680;2023-03-03T00:28:29;2.90;78.00
298;DHT22;133;49.626;9.680;2023-03-03T00:30:58;2.90;78.00
298;DHT22;133;49.626;9.680;2023-03-03T00:33:33;2.80;77.60
298;DHT22;133;49.626;9.680;2023-03-03T00:38:46;2.80;78.40
298;DHT22;133;49.626;9.680;2023-03-03T00:43:45;2.80;78.20
298;DHT22;133;49.626;9.680;2023-03-03T00:46:16;2.70;78.00
298;DHT22;133;49.626;9.680;2023-03-03T00:48:43;2.70;78.40
298;DHT22;133;49.626;9.680;2023-03-03T00:51:27;2.60;78.80
298;DHT22;133;49.626;9.680;2023-03-03T00:53:53;2.70;78.80
298;DHT22;133;49.626;9.680;2023-03-03T00:56:19;2.70;78.60
298;DHT22;133;49.626;9.680;2023-03-03T00:58:45;2.70;78.60
298;DHT22;133;49.626;9.680;2023-03-03T01:01:13;2.60;79.00
298;DHT22;133;49.626;9.680;2023-03-03T01:03:39;2.50;78.90
298;DHT22;133;49.626;9.680;2023-03-03T01:06:05;2.50;78.90
298;DHT22;133;49.626;9.680;2023-03-03T01:08:31;2.50;78.50
298;DHT22;133;49.626;9.680;2023-03-03T01:11:00;2.40;78.40
298;DHT22;133;49.626;9.680;2023-03-03T01:13:31;2.40;78.30
298;DHT22;133;49.626;9.680;2023-03-03T01:15:58;2.30;78.00
298;DHT22;133;49.626;9.680;2023-03-03T01:18:24;2.30;78.20
298;DHT22;133;49.626;9.680;2023-03-03T01:20:49;2.30;78.80
298;DHT22;133;49.626;9.680;2023-03-03T01:23:15;2.40;78.90
298;DHT22;133;49.626;9.680;2023-03-03T01:25:41;2.40;79.10
298;DHT22;133;49.626;9.680;2023-03-03T01:28:07;2.40;79.00
298;DHT22;133;49.626;9.680;2023-03-03T01:30:32;2.30;79.30
298;DHT22;133;49.626;9.680;2023-03-03T01:32:58;2.30;79.40
298;DHT22;133;49.626;9.680;2023-03-03T01:35:24;2.40;79.40
298;DHT22;133;49.626;9.680;2023-03-03T01:37:50;2.30;79.50
298;DHT22;133;49.626;9.680;2023-03-03T01:40:19;2.20;79.80
298;DHT22;133;49.626;9.680;2023-03-03T01:42:45;2.20;80.40
298;DHT22;133;49.626;9.680;2023-03-03T01:45:22;2.20;80.50
298;DHT22;133;49.626;9.680;2023-03-03T01:47:52;2.10;80.50
298;DHT22;133;49.626;9.680;2023-03-03T01:50:56;2.10;81.00
298;DHT22;133;49.626;9.680;2023-03-03T01:53:38;2.00;81.80
298;DHT22;133;49.626;9.680;2023-03-03T01:56:06;2.00;81.50
298;DHT22;133;49.626;9.680;2023-03-03T01:59:05;1.80;82.30
298;DHT22;133;49.626;9.680;2023-03-03T02:01:30;1.90;82.10
298;DHT22;133;49.626;9.680;2023-03-03T02:03:57;1.80;82.30
298;DHT22;133;49.626;9.680;2023-03-03T02:06:28;1.90;82.40
298;DHT22;133;49.626;9.680;2023-03-03T02:11:37;1.80;81.80
298;DHT22;133;49.626;9.680;2023-03-03T02:14:04;1.80;82.20
298;DHT22;133;49.626;9.680;2023-03-03T02:16:30;1.80;82.00
298;DHT22;133;49.626;9.680;2023-03-03T02:18:56;1.70;81.10
298;DHT22;133;49.626;9.680;2023-03-03T02:21:24;1.70;81.40
298;DHT22;133;49.626;9.680;2023-03-03T02:24:15;1.60;82.10
298;DHT22;133;49.626;9.680;2023-03-03T02:26:44;1.50;81.70
298;DHT22;133;49.626;9.680;2023-03-03T02:29:10;1.40;82.00
298;DHT22;133;49.626;9.680;2023-03-03T02:31:36;1.40;82.80
298;DHT22;133;49.626;9.680;2023-03-03T02:34:03;1.30;82.30
298;DHT22;133;49.626;9.680;2023-03-03T02:36:38;1.40;82.90
298;DHT22;133;49.626;9.680;2023-03-03T02:39:15;1.30;83.10
298;DHT22;133;49.626;9.680;2023-03-03T02:44:13;1.30;82.80
298;DHT22;133;49.626;9.680;2023-03-03T02:46:42;1.40;82.80
298;DHT22;133;49.626;9.680;2023-03-03T02:49:12;1.40;83.00
298;DHT22;133;49.626;9.680;2023-03-03T02:51:38;1.40;83.20
298;DHT22;133;49.626;9.680;2023-03-03T02:54:05;1.50;83.20
298;DHT22;133;49.626;9.680;2023-03-03T02:56:31;1.40;82.80
298;DHT22;133;49.626;9.680;2023-03-03T02:58:56;1.40;82.80
298;DHT22;133;49.626;9.680;2023-03-03T03:01:22;1.30;82.50
298;DHT22;133;49.626;9.680;2023-03-03T03:03:47;1.30;83.00
298;DHT22;133;49.626;9.680;2023-03-03T03:06:13;1.40;82.80
298;DHT22;133;49.626;9.680;2023-03-03T03:08:39;1.30;82.70
298;DHT22;133;49.626;9.680;2023-03-03T03:11:05;1.20;83.60
298;DHT22;133;49.626;9.680;2023-03-03T03:13:31;1.20;83.60
298;DHT22;133;49.626;9.680;2023-03-03T03:15:58;1.10;84.00
298;DHT22;133;49.626;9.680;2023-03-03T03:18:24;1.10;84.00
298;DHT22;133;49.626;9.680;2023-03-03T03:20:50;1.20;83.80
298;DHT22;133;49.626;9.680;2023-03-03T03:23:16;1.10;83.80
298;DHT22;133;49.626;9.680;2023-03-03T03:25:41;1.10;83.50
298;DHT22;133;49.626;9.680;2023-03-03T03:28:12;1.00;83.50
298;DHT22;133;49.626;9.680;2023-03-03T03:30:38;1.00;83.80
298;DHT22;133;49.626;9.680;2023-03-03T03:33:04;1.00;83.70
298;DHT22;133;49.626;9.680;2023-03-03T03:35:32;0.90;83.60
298;DHT22;133;49.626;9.680;2023-03-03T03:37:58;0.90;83.40
298;DHT22;133;49.626;9.680;2023-03-03T03:40:24;0.90;83.50
298;DHT22;133;49.626;9.680;2023-03-03T03:42:54;0.80;84.40
298;DHT22;133;49.626;9.680;2023-03-03T03:45:20;0.70;84.10
298;DHT22;133;49.626;9.680;2023-03-03T03:47:46;0.80;84.50
298;DHT22;133;49.626;9.680;2023-03-03T03:50:12;0.70;84.40
298;DHT22;133;49.626;9.680;2023-03-03T03:52:37;0.80;84.00
298;DHT22;133;49.626;9.680;2023-03-03T03:55:04;0.90;83.60
298;DHT22;133;49.626;9.680;2023-03-03T03:57:29;0.90;83.70
298;DHT22;133;49.626;9.680;2023-03-03T03:59:55;0.90;84.00
298;DHT22;133;49.626;9.680;2023-03-03T04:02:21;0.80;83.40
298;DHT22;133;49.626;9.680;2023-03-03T04:04:46;0.70;84.00
298;DHT22;133;49.626;9.680;2023-03-03T04:07:12;0.80;83.80
298;DHT22;133;49.626;9.680;2023-03-03T04:09:38;0.80;83.40
298;DHT22;133;49.626;9.680;2023-03-03T04:12:04;0.70;83.60
298;DHT22;133;49.626;9.680;2023-03-03T04:14:29;0.60;84.10
298;DHT22;133;49.626;9.680;2023-03-03T04:16:55;0.60;84.80
298;DHT22;133;49.626;9.680;2023-03-03T04:19:21;0.60;85.00
298;DHT22;133;49.626;9.680;2023-03-03T04:21:47;0.60;84.80
298;DHT22;133;49.626;9.680;2023-03-03T04:24:12;0.50;84.50
298;DHT22;133;49.626;9.680;2023-03-03T04:26:38;0.50;84.70
298;DHT22;133;49.626;9.680;2023-03-03T04:29:04;0.50;84.50
298;DHT22;133;49.626;9.680;2023-03-03T04:31:29;0.50;84.50
298;DHT22;133;49.626;9.680;2023-03-03T04:33:55;0.50;84.40
298;DHT22;133;49.626;9.680;2023-03-03T04:36:21;0.40;84.30
298;DHT22;133;49.626;9.680;2023-03-03T04:38:46;0.40;84.40
298;DHT22;133;49.626;9.680;2023-03-03T04:41:13;0.40;84.60
298;DHT22;133;49.626;9.680;2023-03-03T04:43:39;0.40;85.30
298;DHT22;133;49.626;9.680;2023-03-03T04:46:04;0.50;84.90
298;DHT22;133;49.626;9.680;2023-03-03T04:48:30;0.40;84.60
298;DHT22;133;49.626;9.680;2023-03-03T04:50:56;0.50;84.70
298;DHT22;133;49.626;9.680;2023-03-03T04:53:21;0.40;84.90
298;DHT22;133;49.626;9.680;2023-03-03T04:55:50;0.40;85.00
298;DHT22;133;49.626;9.680;2023-03-03T04:58:16;0.30;85.20
298;DHT22;133;49.626;9.680;2023-03-03T05:00:46;0.30;85.70
298;DHT22;133;49.626;9.680;2023-03-03T05:03:12;0.30;85.70
298;DHT22;133;49.626;9.680;2023-03-03T05:05:39;0.40;86.00
298;DHT22;133;49.626;9.680;2023-03-03T05:08:05;0.40;85.90
298;DHT22;133;49.626;9.680;2023-03-03T05:10:31;0.30;85.80
298;DHT22;133;49.626;9.680;2023-03-03T05:12:56;0.30;86.10
298;DHT22;133;49.626;9.680;2023-03-03T05:15:22;0.30;86.70
298;DHT22;133;49.626;9.680;2023-03-03T05:17:47;0.30;86.90
298;DHT22;133;49.626;9.680;2023-03-03T05:20:13;0.40;86.80
298;DHT22;133;49.626;9.680;2023-03-03T05:22:39;0.40;86.30
298;DHT22;133;49.626;9.680;2023-03-03T05:25:05;0.40;85.80
298;DHT22;133;49.626;9.680;2023-03-03T05:27:30;0.30;85.70
298;DHT22;133;49.626;9.680;2023-03-03T05:29:56;0.20;85.90
298;DHT22;133;49.626;9.680;2023-03-03T05:32:22;0.20;86.00
298;DHT22;133;49.626;9.680;2023-03-03T05:34:47;0.30;86.10
298;DHT22;133;49.626;9.680;2023-03-03T05:37:13;0.20;85.60
298;DHT22;133;49.626;9.680;2023-03-03T05:39:40;0.10;85.70
298;DHT22;133;49.626;9.680;2023-03-03T05:42:05;0.20;86.10
298;DHT22;133;49.626;9.680;2023-03-03T05:44:31;0.10;86.10
298;DHT22;133;49.626;9.680;2023-03-03T05:46:57;0.10;86.40
298;DHT22;133;49.626;9.680;2023-03-03T05:49:24;0.00;86.40
298;DHT22;133;49.626;9.680;2023-03-03T05:51:49;0.00;87.20
298;DHT22;133;49.626;9.680;2023-03-03T05:54:15;0.00;86.50
298;DHT22;133;49.626;9.680;2023-03-03T05:56:40;0.00;86.70
298;DHT22;133;49.626;9.680;2023-03-03T05:59:06;0.00;86.60
298;DHT22;133;49.626;9.680;2023-03-03T06:01:32;0.00;86.50
298;DHT22;133;49.626;9.680;2023-03-03T06:03:58;-0.10;87.40
298;DHT22;133;49.626;9.680;2023-03-03T06:06:23;-0.10;87.30
298;DHT22;133;49.626;9.680;2023-03-03T06:08:49;0.00;87.60
298;DHT22;133;49.626;9.680;2023-03-03T06:11:15;-0.10;87.10
298;DHT22;133;49.626;9.680;2023-03-03T06:13:43;-0.10;87.10
298;DHT22;133;49.626;9.680;2023-03-03T06:16:08;-0.10;87.40
298;DHT22;133;49.626;9.680;2023-03-03T06:18:34;-0.10;87.80
298;DHT22;133;49.626;9.680;2023-03-03T06:20:59;-0.10;87.90
298;DHT22;133;49.626;9.680;2023-03-03T06:23:25;0.00;88.20
298;DHT22;133;49.626;9.680;2023-03-03T06:25:50;0.00;87.90
298;DHT22;133;49.626;9.680;2023-03-03T06:28:17;0.00;87.50
298;DHT22;133;49.626;9.680;2023-03-03T06:30:43;-0.10;87.80
298;DHT22;133;49.626;9.680;2023-03-03T06:33:09;0.00;88.10
298;DHT22;133;49.626;9.680;2023-03-03T06:35:34;0.00;88.20
298;DHT22;133;49.626;9.680;2023-03-03T06:38:01;0.00;88.60
298;DHT22;133;49.626;9.680;2023-03-03T06:40:26;0.10;87.90
298;DHT22;133;49.626;9.680;2023-03-03T06:42:52;0.10;88.00
298;DHT22;133;49.626;9.680;2023-03-03T06:45:17;0.10;87.80
298;DHT22;133;49.626;9.680;2023-03-03T06:47:43;0.30;87.90
298;DHT22;133;49.626;9.680;2023-03-03T06:50:10;0.30;87.50
298;DHT22;133;49.626;9.680;2023-03-03T06:52:36;0.40;87.20
298;DHT22;133;49.626;9.680;2023-03-03T06:55:11;0.40;87.00
298;DHT22;133;49.626;9.680;2023-03-03T06:57:37;0.40;87.10
298;DHT22;133;49.626;9.680;2023-03-03T07:02:47;0.40;86.90
298;DHT22;133;49.626;9.680;2023-03-03T07:05:17;0.50;86.80
298;DHT22;133;49.626;9.680;2023-03-03T07:07:43;0.50;86.70
298;DHT22;133;49.626;9.680;2023-03-03T07:10:19;0.60;86.80
298;DHT22;133;49.626;9.680;2023-03-03T07:12:46;0.60;86.80
298;DHT22;133;49.626;9.680;2023-03-03T07:15:14;0.70;86.80
298;DHT22;133;49.626;9.680;2023-03-03T07:17:43;0.80;86.50
298;DHT22;133;49.626;9.680;2023-03-03T07:20:35;0.80;86.50
298;DHT22;133;49.626;9.680;2023-03-03T07:23:22;0.70;86.60
298;DHT22;133;49.626;9.680;2023-03-03T07:25:48;0.80;86.70
298;DHT22;133;49.626;9.680;2023-03-03T07:28:28;0.90;86.10
298;DHT22;133;49.626;9.680;2023-03-03T07:30:57;0.90;85.70
298;DHT22;133;49.626;9.680;2023-03-03T07:33:30;0.90;85.50
298;DHT22;133;49.626;9.680;2023-03-03T07:36:01;1.00;85.70
298;DHT22;133;49.626;9.680;2023-03-03T07:38:29;0.90;85.30
298;DHT22;133;49.626;9.680;2023-03-03T07:40:58;0.90;85.20
298;DHT22;133;49.626;9.680;2023-03-03T07:43:47;0.80;85.30
298;DHT22;133;49.626;9.680;2023-03-03T07:46:35;0.60;86.00
298;DHT22;133;49.626;9.680;2023-03-03T07:49:28;0.70;85.90
298;DHT22;133;49.626;9.680;2023-03-03T07:51:58;0.80;85.80
298;DHT22;133;49.626;9.680;2023-03-03T07:54:37;0.90;86.20
298;DHT22;133;49.626;9.680;2023-03-03T08:02:40;1.10;85.10
298;DHT22;133;49.626;9.680;2023-03-03T08:07:49;1.30;84.90
298;DHT22;133;49.626;9.680;2023-03-03T08:10:48;1.30;84.70
298;DHT22;133;49.626;9.680;2023-03-03T08:16:00;1.60;84.40
298;DHT22;133;49.626;9.680;2023-03-03T08:18:34;1.60;83.90
298;DHT22;133;49.626;9.680;2023-03-03T08:21:20;1.60;84.30
298;DHT22;133;49.626;9.680;2023-03-03T08:23:46;1.70;84.60
298;DHT22;133;49.626;9.680;2023-03-03T08:26:19;1.80;84.70
298;DHT22;133;49.626;9.680;2023-03-03T08:28:46;1.90;85.00
298;DHT22;133;49.626;9.680;2023-03-03T08:31:11;2.10;84.90
298;DHT22;133;49.626;9.680;2023-03-03T08:33:38;2.20;84.30
298;DHT22;133;49.626;9.680;2023-03-03T08:36:04;2.40;84.40
298;DHT22;133;49.626;9.680;2023-03-03T08:38:30;2.50;83.80
298;DHT22;133;49.626;9.680;2023-03-03T08:40:56;2.50;83.80
298;DHT22;133;49.626;9.680;2023-03-03T08:43:21;2.60;83.80
298;DHT22;133;49.626;9.680;2023-03-03T08:45:50;2.70;83.70
298;DHT22;133;49.626;9.680;2023-03-03T08:48:16;2.90;83.50
298;DHT22;133;49.626;9.680;2023-03-03T08:50:42;2.90;83.70
298;DHT22;133;49.626;9.680;2023-03-03T08:53:09;3.00;83.40
298;DHT22;133;49.626;9.680;2023-03-03T08:55:35;3.10;83.40
298;DHT22;133;49.626;9.680;2023-03-03T08:58:00;3.30;83.20
298;DHT22;133;49.626;9.680;2023-03-03T09:00:26;3.40;83.00
298;DHT22;133;49.626;9.680;2023-03-03T09:02:53;3.40;83.20
298;DHT22;133;49.626;9.680;2023-03-03T09:05:19;3.40;82.80
298;DHT22;133;49.626;9.680;2023-03-03T09:07:45;3.40;82.80
298;DHT22;133;49.626;9.680;2023-03-03T09:10:15;3.30;83.40
298;DHT22;133;49.626;9.680;2023-03-03T09:12:46;3.40;83.90
298;DHT22;133;49.626;9.680;2023-03-03T09:15:23;3.50;83.80
298;DHT22;133;49.626;9.680;2023-03-03T09:17:50;3.60;83.60
298;DHT22;133;49.626;9.680;2023-03-03T09:23:32;3.50;84.30
298;DHT22;133;49.626;9.680;2023-03-03T09:26:22;3.80;83.80
298;DHT22;133;49.626;9.680;2023-03-03T09:28:55;4.10;83.80
298;DHT22;133;49.626;9.680;2023-03-03T09:31:38;4.30;83.20
298;DHT22;133;49.626;9.680;2023-03-03T09:34:21;4.50;82.50
298;DHT22;133;49.626;9.680;2023-03-03T09:36:48;4.60;82.50
298;DHT22;133;49.626;9.680;2023-03-03T09:39:23;4.80;81.70
298;DHT22;133;49.626;9.680;2023-03-03T09:47:31;5.40;79.70
298;DHT22;133;49.626;9.680;2023-03-03T10:06:35;6.60;75.90
298;DHT22;133;49.626;9.680;2023-03-03T10:22:32;7.70;73.10
298;DHT22;133;49.626;9.680;2023-03-03T10:25:48;7.80;73.00
298;DHT22;133;49.626;9.680;2023-03-03T10:33:01;8.00;70.90
298;DHT22;133;49.626;9.680;2023-03-03T10:44:24;8.40;70.50
298;DHT22;133;49.626;9.680;2023-03-03T10:53:43;8.60;69.50
298;DHT22;133;49.626;9.680;2023-03-03T10:56:07;8.70;69.30
298;DHT22;133;49.626;9.680;2023-03-03T10:58:50;8.80;69.80
298;DHT22;133;49.626;9.680;2023-03-03T11:01:48;8.90;69.50
298;DHT22;133;49.626;9.680;2023-03-03T11:04:51;9.10;69.30
298;DHT22;133;49.626;9.680;2023-03-03T11:07:38;9.10;68.10
298;DHT22;133;49.626;9.680;2023-03-03T11:15:51;9.40;67.20
298;DHT22;133;49.626;9.680;2023-03-03T11:18:55;9.50;67.40
298;DHT22;133;49.626;9.680;2023-03-03T11:21:40;9.60;67.00
298;DHT22;133;49.626;9.680;2023-03-03T11:32:52;10.80;65.70
298;DHT22;133;49.626;9.680;2023-03-03T11:40:25;14.00;58.30
298;DHT22;133;49.626;9.680;2023-03-03T11:43:05;15.30;55.80
298;DHT22;133;49.626;9.680;2023-03-03T11:45:43;16.40;53.30
298;DHT22;133;49.626;9.680;2023-03-03T11:49:02;17.40;49.90
298;DHT22;133;49.626;9.680;2023-03-03T11:51:05;18.10;48.60
298;DHT22;133;49.626;9.680;2023-03-03T11:53:49;18.60;48.00
298;DHT22;133;49.626;9.680;2023-03-03T11:56:29;19.20;46.40
298;DHT22;133;49.626;9.680;2023-03-03T12:01:56;19.00;47.10
298;DHT22;133;49.626;9.680;2023-03-03T12:04:43;19.00;46.90
298;DHT22;133;49.626;9.680;2023-03-03T12:13:21;20.10;44.10
298;DHT22;133;49.626;9.680;2023-03-03T12:24:38;19.50;43.10
298;DHT22;133;49.626;9.680;2023-03-03T12:38:27;19.20;43.50
298;DHT22;133;49.626;9.680;2023-03-03T12:41:11;19.60;45.20
298;DHT22;133;49.626;9.680;2023-03-03T12:46:27;19.80;41.40
298;DHT22;133;49.626;9.680;2023-03-03T12:48:58;19.80;42.20
298;DHT22;133;49.626;9.680;2023-03-03T12:57:15;19.90;43.00
298;DHT22;133;49.626;9.680;2023-03-03T13:06:03;19.90;43.90
298;DHT22;133;49.626;9.680;2023-03-03T13:19:57;20.10;41.20
298;DHT22;133;49.626;9.680;2023-03-03T13:22:28;20.40;42.20
298;DHT22;133;49.626;9.680;2023-03-03T13:25:02;20.10;41.80
298;DHT22;133;49.626;9.680;2023-03-03T13:27:38;20.10;42.00
298;DHT22;133;49.626;9.680;2023-03-03T13:30:19;20.20;41.10
298;DHT22;133;49.626;9.680;2023-03-03T13:33:08;20.40;41.20
298;DHT22;133;49.626;9.680;2023-03-03T13:36:58;20.70;40.80
298;DHT22;133;49.626;9.680;2023-03-03T13:38:50;20.90;40.10
298;DHT22;133;49.626;9.680;2023-03-03T13:41:32;20.60;41.70
298;DHT22;133;49.626;9.680;2023-03-03T13:50:01;20.80;40.90
298;DHT22;133;49.626;9.680;2023-03-03T13:52:52;20.50;40.70
298;DHT22;133;49.626;9.680;2023-03-03T13:55:35;19.90;41.40
298;DHT22;133;49.626;9.680;2023-03-03T13:58:28;19.40;41.10
298;DHT22;133;49.626;9.680;2023-03-03T14:08:58;18.60;42.90
298;DHT22;133;49.626;9.680;2023-03-03T14:11:29;18.70;43.20
298;DHT22;133;49.626;9.680;2023-03-03T14:14:18;18.70;42.20
298;DHT22;133;49.626;9.680;2023-03-03T14:19:45;18.50;43.10
298;DHT22;133;49.626;9.680;2023-03-03T14:22:18;18.10;44.20
298;DHT22;133;49.626;9.680;2023-03-03T14:25:02;18.00;43.80
298;DHT22;133;49.626;9.680;2023-03-03T14:30:40;17.70;44.60
298;DHT22;133;49.626;9.680;2023-03-03T14:35:37;17.30;45.70
298;DHT22;133;49.626;9.680;2023-03-03T14:38:34;17.40;45.70
298;DHT22;133;49.626;9.680;2023-03-03T14:41:16;17.50;44.00
298;DHT22;133;49.626;9.680;2023-03-03T14:46:30;18.10;43.50
298;DHT22;133;49.626;9.680;2023-03-03T14:49:29;17.90;44.30
298;DHT22;133;49.626;9.680;2023-03-03T14:52:10;17.30;44.00
298;DHT22;133;49.626;9.680;2023-03-03T14:54:49;16.90;45.50
298;DHT22;133;49.626;9.680;2023-03-03T15:00:02;16.90;45.50
298;DHT22;133;49.626;9.680;2023-03-03T15:05:22;16.80;45.50
298;DHT22;133;49.626;9.680;2023-03-03T15:07:57;16.40;46.00
298;DHT22;133;49.626;9.680;2023-03-03T15:10:43;15.60;47.20
298;DHT22;133;49.626;9.680;2023-03-03T15:18:26;15.40;47.60
298;DHT22;133;49.626;9.680;2023-03-03T15:28:53;14.50;48.90
298;DHT22;133;49.626;9.680;2023-03-03T15:31:46;14.60;48.20
298;DHT22;133;49.626;9.680;2023-03-03T15:34:46;14.60;49.10
298;DHT22;133;49.626;9.680;2023-03-03T15:37:42;14.60;49.50
298;DHT22;133;49.626;9.680;2023-03-03T15:40:26;14.70;48.10
298;DHT22;133;49.626;9.680;2023-03-03T15:45:47;14.40;48.20
298;DHT22;133;49.626;9.680;2023-03-03T15:48:36;14.20;48.50
298;DHT22;133;49.626;9.680;2023-03-03T16:01:21;13.70;49.30
298;DHT22;133;49.626;9.680;2023-03-03T16:06:31;13.50;48.70
298;DHT22;133;49.626;9.680;2023-03-03T16:12:03;13.00;50.40
298;DHT22;133;49.626;9.680;2023-03-03T16:29:04;12.30;52.20
298;DHT22;133;49.626;9.680;2023-03-03T16:34:14;12.30;52.70
298;DHT22;133;49.626;9.680;2023-03-03T16:36:53;12.30;52.90
298;DHT22;133;49.626;9.680;2023-03-03T16:47:41;12.00;53.80
298;DHT22;133;49.626;9.680;2023-03-03T16:50:38;11.80;54.30
298;DHT22;133;49.626;9.680;2023-03-03T16:56:00;11.50;55.20
298;DHT22;133;49.626;9.680;2023-03-03T17:04:04;11.00;57.00
298;DHT22;133;49.626;9.680;2023-03-03T17:06:53;10.80;57.50
298;DHT22;133;49.626;9.680;2023-03-03T17:12:01;10.30;57.80
298;DHT22;133;49.626;9.680;2023-03-03T17:15:05;10.20;59.30
298;DHT22;133;49.626;9.680;2023-03-03T17:17:35;10.10;59.60
298;DHT22;133;49.626;9.680;2023-03-03T17:20:12;10.00;60.00
298;DHT22;133;49.626;9.680;2023-03-03T17:23:04;9.90;59.50
298;DHT22;133;49.626;9.680;2023-03-03T17:26:00;9.80;60.40
298;DHT22;133;49.626;9.680;2023-03-03T17:31:20;9.60;61.70
298;DHT22;133;49.626;9.680;2023-03-03T17:36:45;9.40;62.00
298;DHT22;133;49.626;9.680;2023-03-03T17:39:25;9.40;62.80
298;DHT22;133;49.626;9.680;2023-03-03T17:44:44;9.20;64.60
298;DHT22;133;49.626;9.680;2023-03-03T18:02:13;8.60;66.60
298;DHT22;133;49.626;9.680;2023-03-03T18:13:05;8.20;68.70
298;DHT22;133;49.626;9.680;2023-03-03T18:15:52;8.20;69.40
298;DHT22;133;49.626;9.680;2023-03-03T18:18:39;7.90;70.00
298;DHT22;133;49.626;9.680;2023-03-03T18:21:16;7.90;70.30
298;DHT22;133;49.626;9.680;2023-03-03T18:23:47;7.80;70.60
298;DHT22;133;49.626;9.680;2023-03-03T18:26:40;7.70;71.10
298;DHT22;133;49.626;9.680;2023-03-03T18:29:17;7.70;71.30
298;DHT22;133;49.626;9.680;2023-03-03T18:34:39;7.70;71.20
298;DHT22;133;49.626;9.680;2023-03-03T18:42:42;7.50;71.20
298;DHT22;133;49.626;9.680;2023-03-03T18:48:09;7.50;71.70
298;DHT22;133;49.626;9.680;2023-03-03T18:50:42;7.40;71.20
298;DHT22;133;49.626;9.680;2023-03-03T18:53:27;7.30;71.40
298;DHT22;133;49.626;9.680;2023-03-03T18:55:54;7.20;71.60
298;DHT22;133;49.626;9.680;2023-03-03T18:58:38;7.10;72.10
298;DHT22;133;49.626;9.680;2023-03-03T19:04:18;7.00;72.90
298;DHT22;133;49.626;9.680;2023-03-03T19:09:20;6.80;73.40
298;DHT22;133;49.626;9.680;2023-03-03T19:12:07;6.80;73.50
298;DHT22;133;49.626;9.680;2023-03-03T19:14:39;6.70;73.50
298;DHT22;133;49.626;9.680;2023-03-03T19:20:11;6.50;73.60
298;DHT22;133;49.626;9.680;2023-03-03T19:25:25;6.10;74.30
298;DHT22;133;49.626;9.680;2023-03-03T19:28:11;6.00;75.30
298;DHT22;133;49.626;9.680;2023-03-03T19:33:18;6.00;75.70
298;DHT22;133;49.626;9.680;2023-03-03T19:38:52;5.90;76.30
298;DHT22;133;49.626;9.680;2023-03-03T19:41:43;5.80;76.50
298;DHT22;133;49.626;9.680;2023-03-03T19:52:39;5.50;76.00
298;DHT22;133;49.626;9.680;2023-03-03T19:55:57;5.40;76.30
298;DHT22;133;49.626;9.680;2023-03-03T20:07:24;5.00;77.90
298;DHT22;133;49.626;9.680;2023-03-03T20:09:44;5.00;77.90
298;DHT22;133;49.626;9.680;2023-03-03T20:12:41;4.90;78.30
298;DHT22;133;49.626;9.680;2023-03-03T20:15:13;4.90;78.50
298;DHT22;133;49.626;9.680;2023-03-03T20:17:49;4.80;79.10
298;DHT22;133;49.626;9.680;2023-03-03T20:31:14;4.50;79.90
298;DHT22;133;49.626;9.680;2023-03-03T20:36:52;4.40;80.50
298;DHT22;133;49.626;9.680;2023-03-03T20:39:27;4.40;80.20
298;DHT22;133;49.626;9.680;2023-03-03T20:42:20;4.30;80.20
298;DHT22;133;49.626;9.680;2023-03-03T20:50:32;4.10;79.70
298;DHT22;133;49.626;9.680;2023-03-03T20:58:45;3.90;80.70
298;DHT22;133;49.626;9.680;2023-03-03T21:01:23;3.70;81.00
298;DHT22;133;49.626;9.680;2023-03-03T21:03:52;3.70;81.80
298;DHT22;133;49.626;9.680;2023-03-03T21:06:18;3.60;82.00
298;DHT22;133;49.626;9.680;2023-03-03T21:08:55;3.50;82.20
298;DHT22;133;49.626;9.680;2023-03-03T21:11:24;3.50;82.50
298;DHT22;133;49.626;9.680;2023-03-03T21:14:16;3.50;82.10
298;DHT22;133;49.626;9.680;2023-03-03T21:16:42;3.50;82.30
298;DHT22;133;49.626;9.680;2023-03-03T21:19:12;3.50;82.00
298;DHT22;133;49.626;9.680;2023-03-03T21:21:47;3.50;81.70
298;DHT22;133;49.626;9.680;2023-03-03T21:24:14;3.40;81.90
298;DHT22;133;49.626;9.680;2023-03-03T21:34:35;3.10;82.80
298;DHT22;133;49.626;9.680;2023-03-03T21:37:06;3.10;82.50
298;DHT22;133;49.626;9.680;2023-03-03T21:39:36;3.00;82.90
298;DHT22;133;49.626;9.680;2023-03-03T21:42:10;2.80;83.70
298;DHT22;133;49.626;9.680;2023-03-03T21:44:44;2.80;83.70
298;DHT22;133;49.626;9.680;2023-03-03T21:47:17;2.70;83.30
298;DHT22;133;49.626;9.680;2023-03-03T21:49:44;2.60;83.80
298;DHT22;133;49.626;9.680;2023-03-03T21:52:12;2.60;83.50
298;DHT22;133;49.626;9.680;2023-03-03T21:54:39;2.50;83.40
298;DHT22;133;49.626;9.680;2023-03-03T21:57:05;2.60;83.00
298;DHT22;133;49.626;9.680;2023-03-03T21:59:30;2.50;83.80
298;DHT22;133;49.626;9.680;2023-03-03T22:01:56;2.50;83.40
298;DHT22;133;49.626;9.680;2023-03-03T22:04:22;2.50;83.30
298;DHT22;133;49.626;9.680;2023-03-03T22:06:47;2.50;83.00
298;DHT22;133;49.626;9.680;2023-03-03T22:09:13;2.40;83.10
298;DHT22;133;49.626;9.680;2023-03-03T22:11:39;2.40;83.40
298;DHT22;133;49.626;9.680;2023-03-03T22:14:05;2.40;83.00
298;DHT22;133;49.626;9.680;2023-03-03T22:16:32;2.40;83.30
298;DHT22;133;49.626;9.680;2023-03-03T22:19:03;2.40;82.60
298;DHT22;133;49.626;9.680;2023-03-03T22:21:30;2.30;82.90
298;DHT22;133;49.626;9.680;2023-03-03T22:23:56;2.30;82.70
298;DHT22;133;49.626;9.680;2023-03-03T22:26:24;2.30;82.90
298;DHT22;133;49.626;9.680;2023-03-03T22:28:49;2.20;82.80
298;DHT22;133;49.626;9.680;2023-03-03T22:31:15;2.10;83.20
298;DHT22;133;49.626;9.680;2023-03-03T22:33:41;2.00;83.10
298;DHT22;133;49.626;9.680;2023-03-03T22:36:08;2.00;83.90
298;DHT22;133;49.626;9.680;2023-03-03T22:38:33;2.00;83.50
298;DHT22;133;49.626;9.680;2023-03-03T22:41:00;2.00;83.10
298;DHT22;133;49.626;9.680;2023-03-03T22:43:25;2.00;83.10
298;DHT22;133;49.626;9.680;2023-03-03T22:45:56;1.90;83.30
298;DHT22;133;49.626;9.680;2023-03-03T22:48:23;1.80;83.70
298;DHT22;133;49.626;9.680;2023-03-03T22:50:50;1.70;84.40
298;DHT22;133;49.626;9.680;2023-03-03T22:53:16;1.70;84.50
298;DHT22;133;49.626;9.680;2023-03-03T22:55:42;1.60;84.90
298;DHT22;133;49.626;9.680;2023-03-03T22:58:08;1.60;85.50
298;DHT22;133;49.626;9.680;2023-03-03T23:00:34;1.60;85.60
298;DHT22;133;49.626;9.680;2023-03-03T23:03:04;1.60;85.20
298;DHT22;133;49.626;9.680;2023-03-03T23:05:30;1.70;84.50
298;DHT22;133;49.626;9.680;2023-03-03T23:07:55;1.70;84.00
298;DHT22;133;49.626;9.680;2023-03-03T23:10:21;1.70;84.40
298;DHT22;133;49.626;9.680;2023-03-03T23:12:47;1.60;84.40
298;DHT22;133;49.626;9.680;2023-03-03T23:15:13;1.70;84.80
298;DHT22;133;49.626;9.680;2023-03-03T23:17:42;1.70;84.30
298;DHT22;133;49.626;9.680;2023-03-03T23:20:11;1.70;83.70
298;DHT22;133;49.626;9.680;2023-03-03T23:22:37;1.60;84.00
298;DHT22;133;49.626;9.680;2023-03-03T23:25:03;1.60;84.50
298;DHT22;133;49.626;9.680;2023-03-03T23:27:28;1.50;85.30
298;DHT22;133;49.626;9.680;2023-03-03T23:29:54;1.50;85.20
298;DHT22;133;49.626;9.680;2023-03-03T23:32:20;1.50;85.40